createdAt,value
2023-01-12T00:26:36.468Z,109
2023-01-12T00:56:35.787Z,107
2023-01-12T01:26:37.229Z,105
2023-01-12T01:56:37.852Z,104
2023-01-12T02:26:38.059Z,105
2023-01-12T02:56:40.668Z,105
2023-01-12T03:26:36.486Z,105
2023-01-12T03:56:32.519Z,104
2023-01-12T04:26:30.216Z,104
2023-01-12T04:56:30.815Z,104
2023-01-12T05:26:33.461Z,105
2023-01-12T05:56:32.559Z,105
2023-01-12T06:26:31.936Z,104
2023-01-12T06:56:31.418Z,105
2023-01-12T07:56:36.536Z,100
2023-01-12T08:26:34.957Z,102
2023-01-12T08:56:35.448Z,101
2023-01-12T09:26:38.090Z,99
2023-01-12T09:56:34.464Z,98
2023-01-12T10:26:37.295Z,101
2023-01-12T10:56:38.941Z,177
2023-01-12T11:26:37.454Z,128
2023-01-12T11:56:37.923Z,529
2023-01-12T12:26:36.045Z,619
2023-01-12T12:56:38.197Z,493
2023-01-12T13:26:36.540Z,474
2023-01-12T13:56:37.671Z,483
2023-01-12T14:26:37.119Z,452
2023-01-12T14:56:34.745Z,437
2023-01-12T15:26:32.818Z,425
2023-01-12T15:56:34.841Z,-1
2023-01-12T16:26:31.699Z,387
2023-01-12T16:57:33.905Z,790
2023-01-12T17:27:33.041Z,572
2023-01-12T17:57:28.167Z,553
2023-01-12T18:27:29.940Z,558
2023-01-12T18:57:27.925Z,524
2023-01-12T19:27:29.288Z,511
2023-01-12T19:57:28.109Z,493
2023-01-12T20:27:23.710Z,477
2023-01-12T20:57:29.687Z,463
2023-01-12T21:27:31.670Z,448
2023-01-12T21:57:29.478Z,502
2023-01-12T22:27:29.738Z,445
2023-01-12T22:57:26.984Z,429
2023-01-12T23:27:23.421Z,416
2023-01-12T23:57:22.210Z,401
